createdAt,value
2023-05-09T00:00:14.790Z,12.38
2023-05-09T00:00:26.699Z,12.80
2023-05-09T00:00:39.731Z,12.60
2023-05-09T00:00:51.790Z,12.05
2023-05-09T00:01:11.057Z,12.82
2023-05-09T00:01:22.998Z,11.98
2023-05-09T00:01:35.284Z,12.30
2023-05-09T00:01:47.207Z,13.52
2023-05-09T00:01:59.249Z,14.18
2023-05-09T00:02:11.436Z,13.27
2023-05-09T00:02:23.651Z,12.85
2023-05-09T00:02:36.231Z,14.18
2023-05-09T00:02:48.488Z,14.82
2023-05-09T00:03:00.704Z,14.43
2023-05-09T00:03:14.306Z,14.23
2023-05-09T00:03:26.982Z,15.23
2023-05-09T00:03:39.631Z,14.55
2023-05-09T00:03:51.709Z,12.63
2023-05-09T00:04:05.035Z,12.27
2023-05-09T00:04:17.041Z,13.15
2023-05-09T00:04:30.145Z,14.02
2023-05-09T00:04:42.399Z,14.23
2023-05-09T00:04:54.416Z,13.52
2023-05-09T00:05:08.035Z,13.00
2023-05-09T00:05:21.691Z,13.82
2023-05-09T00:05:33.657Z,14.60
2023-05-09T00:05:46.132Z,14.73
2023-05-09T00:05:58.065Z,12.23
2023-05-09T00:06:11.511Z,12.95
2023-05-09T00:06:23.417Z,13.15
2023-05-09T00:06:35.413Z,12.68
2023-05-09T00:06:47.360Z,12.63
2023-05-09T00:06:59.468Z,12.73
2023-05-09T00:07:11.360Z,13.48
2023-05-09T00:07:23.256Z,13.52
2023-05-09T00:07:35.262Z,13.10
2023-05-09T00:07:48.172Z,13.65
2023-05-09T00:08:00.235Z,13.80
2023-05-09T00:08:12.333Z,12.80
2023-05-09T00:08:24.212Z,13.18
2023-05-09T00:08:36.298Z,12.48
2023-05-09T00:08:48.526Z,12.63
2023-05-09T00:09:00.434Z,13.63
2023-05-09T00:09:12.738Z,13.35
2023-05-09T00:09:25.875Z,14.15
2023-05-09T00:09:37.815Z,14.98
2023-05-09T00:09:49.705Z,14.98
2023-05-09T00:10:01.709Z,12.80
2023-05-09T00:10:14.169Z,11.18
2023-05-09T00:10:27.396Z,12.18
2023-05-09T00:10:39.568Z,12.98
2023-05-09T00:10:52.146Z,12.90
2023-05-09T00:11:04.124Z,11.93
2023-05-09T00:11:16.110Z,11.63
2023-05-09T00:11:30.460Z,12.07
2023-05-09T00:11:42.464Z,12.48
2023-05-09T00:11:54.471Z,12.30
2023-05-09T00:12:06.684Z,12.27
2023-05-09T00:12:18.584Z,12.98
2023-05-09T00:12:30.972Z,13.45
2023-05-09T00:12:43.722Z,14.07
2023-05-09T00:12:57.377Z,14.90
2023-05-09T00:13:09.396Z,13.63
2023-05-09T00:13:21.443Z,11.98
2023-05-09T00:13:34.657Z,12.73
2023-05-09T00:13:49.091Z,13.68
2023-05-09T00:14:02.434Z,13.70
2023-05-09T00:14:14.390Z,12.45
2023-05-09T00:14:27.324Z,14.95
2023-05-09T00:14:40.964Z,15.38
2023-05-09T00:14:54.242Z,14.02
2023-05-09T00:15:08.260Z,13.75
2023-05-09T00:15:20.307Z,14.35
2023-05-09T00:15:32.280Z,14.15
2023-05-09T00:15:44.826Z,14.13
2023-05-09T00:15:59.419Z,13.35
2023-05-09T00:16:11.424Z,12.15
2023-05-09T00:16:24.118Z,13.07
2023-05-09T00:16:36.750Z,13.52
2023-05-09T00:16:49.204Z,13.98
2023-05-09T00:17:01.194Z,12.98
2023-05-09T00:17:14.443Z,13.30
2023-05-09T00:17:28.583Z,15.55
2023-05-09T00:17:40.690Z,14.40
2023-05-09T00:17:52.978Z,13.75
2023-05-09T00:18:05.175Z,14.30
2023-05-09T00:18:18.003Z,15.52
2023-05-09T00:18:30.921Z,14.65
2023-05-09T00:18:44.031Z,14.27
2023-05-09T00:18:57.906Z,14.70
2023-05-09T00:19:09.904Z,14.32
2023-05-09T00:19:21.891Z,13.10
2023-05-09T00:19:34.092Z,12.93
2023-05-09T00:19:46.009Z,13.85
2023-05-09T00:19:57.895Z,13.32
2023-05-09T00:20:12.241Z,13.88
2023-05-09T00:20:24.481Z,17.15
2023-05-09T00:20:37.493Z,17.35
2023-05-09T00:20:50.608Z,14.13
2023-05-09T00:21:03.953Z,14.07
2023-05-09T00:21:15.850Z,15.18
2023-05-09T00:21:28.230Z,15.68
2023-05-09T00:21:40.175Z,13.48
2023-05-09T00:21:52.191Z,13.40
2023-05-09T00:22:04.108Z,13.60
2023-05-09T00:22:21.468Z,13.48
2023-05-09T00:22:33.360Z,13.90
2023-05-09T00:22:45.314Z,15.68
2023-05-09T00:22:57.201Z,15.63
2023-05-09T00:23:09.713Z,13.85
2023-05-09T00:23:21.664Z,13.20
2023-05-09T00:23:33.561Z,13.65
2023-05-09T00:23:47.005Z,14.13
2023-05-09T00:24:00.266Z,16.42
2023-05-09T00:24:12.178Z,17.13
2023-05-09T00:24:24.152Z,15.27
2023-05-09T00:24:36.064Z,15.02
2023-05-09T00:24:48.674Z,13.68
2023-05-09T00:25:00.832Z,13.90
2023-05-09T00:25:12.978Z,14.85
2023-05-09T00:25:25.436Z,14.40
2023-05-09T00:25:37.364Z,13.70
2023-05-09T00:25:49.328Z,15.63
2023-05-09T00:26:01.450Z,16.27
2023-05-09T00:26:13.382Z,16.48
2023-05-09T00:26:26.211Z,16.17
2023-05-09T00:26:38.139Z,13.57
2023-05-09T00:26:50.049Z,14.20
2023-05-09T00:27:01.948Z,14.35
2023-05-09T00:27:14.240Z,14.27
2023-05-09T00:27:27.268Z,15.60
2023-05-09T00:27:39.183Z,15.38
2023-05-09T00:27:51.184Z,15.63
2023-05-09T00:28:03.312Z,15.80
2023-05-09T00:28:15.289Z,15.07
2023-05-09T00:28:27.486Z,14.15
2023-05-09T00:28:39.409Z,13.95
2023-05-09T00:28:51.396Z,14.15
2023-05-09T00:29:03.438Z,14.90
2023-05-09T00:29:15.458Z,14.25
2023-05-09T00:29:27.401Z,14.20
2023-05-09T00:29:39.390Z,13.90
2023-05-09T00:29:51.334Z,14.05
2023-05-09T00:30:04.920Z,15.13
2023-05-09T00:30:16.969Z,16.85
2023-05-09T00:30:28.883Z,16.10
2023-05-09T00:30:40.836Z,14.70
2023-05-09T00:30:53.060Z,15.02
2023-05-09T00:31:05.619Z,16.67
2023-05-09T00:31:17.614Z,16.55
2023-05-09T00:31:29.560Z,14.75
2023-05-09T00:31:41.491Z,14.98
2023-05-09T00:31:53.500Z,16.42
2023-05-09T00:32:05.647Z,16.75
2023-05-09T00:32:17.636Z,16.10
2023-05-09T00:32:29.857Z,15.82
2023-05-09T00:32:41.905Z,15.35
2023-05-09T00:32:53.986Z,14.13
2023-05-09T00:33:06.247Z,14.57
2023-05-09T00:33:19.368Z,14.30
2023-05-09T00:33:31.351Z,15.00
2023-05-09T00:33:43.269Z,15.40
2023-05-09T00:33:55.207Z,14.52
2023-05-09T00:34:07.134Z,14.75
2023-05-09T00:34:19.074Z,15.05
2023-05-09T00:34:31.007Z,15.45
2023-05-09T00:34:44.022Z,13.40
2023-05-09T00:34:56.147Z,14.50
2023-05-09T00:35:09.028Z,15.33
2023-05-09T00:35:21.066Z,14.48
2023-05-09T00:35:33.018Z,14.38
2023-05-09T00:35:44.913Z,13.82
2023-05-09T00:35:56.847Z,14.55
2023-05-09T00:36:08.869Z,14.63
2023-05-09T00:36:21.254Z,15.82
2023-05-09T00:36:34.101Z,15.70
2023-05-09T00:36:46.046Z,15.63
2023-05-09T00:36:57.947Z,16.33
2023-05-09T00:37:09.954Z,17.58
2023-05-09T00:37:21.989Z,17.48
2023-05-09T00:37:33.940Z,15.35
2023-05-09T00:37:45.940Z,15.90
2023-05-09T00:37:57.881Z,15.98
2023-05-09T00:38:09.917Z,14.75
2023-05-09T00:38:24.834Z,14.30
2023-05-09T00:38:36.783Z,15.05
2023-05-09T00:38:49.856Z,15.52
2023-05-09T00:39:01.749Z,14.05
2023-05-09T00:39:13.701Z,13.63
2023-05-09T00:39:25.602Z,14.98
2023-05-09T00:39:38.883Z,16.27
2023-05-09T00:39:50.785Z,16.13
2023-05-09T00:40:04.168Z,16.05
2023-05-09T00:40:16.103Z,16.40
2023-05-09T00:40:28.032Z,15.52
2023-05-09T00:40:40.232Z,13.85
2023-05-09T00:40:53.270Z,14.35
2023-05-09T00:41:05.274Z,14.52
2023-05-09T00:41:17.300Z,15.07
2023-05-09T00:41:29.254Z,15.10
2023-05-09T00:41:41.162Z,15.85
2023-05-09T00:41:53.194Z,15.85
2023-05-09T00:42:05.202Z,16.20
2023-05-09T00:42:18.250Z,14.68
2023-05-09T00:42:30.158Z,16.15
2023-05-09T00:42:42.113Z,16.45
2023-05-09T00:42:58.807Z,15.85
2023-05-09T00:43:10.802Z,15.57
2023-05-09T00:43:22.720Z,14.73
2023-05-09T00:43:34.761Z,15.68
2023-05-09T00:43:46.749Z,15.93
2023-05-09T00:43:58.677Z,16.58
2023-05-09T00:44:10.567Z,16.83
2023-05-09T00:44:34.631Z,16.80
2023-05-09T00:44:46.553Z,15.55
2023-05-09T00:44:58.620Z,14.20
2023-05-09T00:45:11.534Z,13.98
2023-05-09T00:45:24.021Z,14.52
2023-05-09T00:45:36.027Z,14.82
2023-05-09T00:45:48.369Z,15.10
2023-05-09T00:46:00.444Z,16.02
2023-05-09T00:46:12.547Z,15.52
2023-05-09T00:46:25.459Z,14.88
2023-05-09T00:46:38.605Z,15.60
2023-05-09T00:46:50.593Z,16.15
2023-05-09T00:47:02.561Z,15.85
2023-05-09T00:47:14.547Z,16.83
2023-05-09T00:47:27.997Z,17.40
2023-05-09T00:47:40.110Z,16.85
2023-05-09T00:47:52.403Z,16.08
2023-05-09T00:48:04.930Z,16.70
2023-05-09T00:48:18.349Z,16.08
2023-05-09T00:48:30.360Z,15.32
2023-05-09T00:48:46.518Z,15.52
2023-05-09T00:48:58.691Z,16.90
2023-05-09T00:49:12.294Z,18.17
2023-05-09T00:49:24.248Z,17.67
2023-05-09T00:49:36.493Z,16.83
2023-05-09T00:49:48.493Z,15.77
2023-05-09T00:50:01.626Z,17.23
2023-05-09T00:50:13.821Z,16.88
2023-05-09T00:50:25.818Z,15.60
2023-05-09T00:50:37.786Z,14.90
2023-05-09T00:50:53.034Z,14.38
2023-05-09T00:51:05.264Z,14.27
2023-05-09T00:51:17.956Z,13.95
2023-05-09T00:51:30.929Z,14.15
2023-05-09T00:51:42.968Z,14.38
2023-05-09T00:51:55.927Z,14.90
2023-05-09T00:52:07.893Z,14.48
2023-05-09T00:52:23.313Z,15.88
2023-05-09T00:52:36.277Z,19.75
2023-05-09T00:53:01.084Z,15.80
2023-05-09T00:53:13.378Z,17.13
2023-05-09T00:53:25.386Z,17.58
2023-05-09T00:53:37.351Z,16.60
2023-05-09T00:53:50.617Z,15.13
2023-05-09T00:54:02.693Z,15.68
2023-05-09T00:54:14.719Z,15.30
2023-05-09T00:54:26.814Z,15.00
2023-05-09T00:54:38.966Z,14.50
2023-05-09T00:54:52.767Z,14.20
2023-05-09T00:55:08.984Z,14.45
2023-05-09T00:55:21.034Z,14.45
2023-05-09T00:55:33.407Z,14.65
2023-05-09T00:55:45.536Z,14.38
2023-05-09T00:55:58.248Z,16.10
2023-05-09T00:56:11.911Z,16.88
2023-05-09T00:56:23.994Z,14.90
2023-05-09T00:56:35.988Z,15.38
2023-05-09T00:56:48.135Z,15.50
2023-05-09T00:57:00.728Z,15.05
2023-05-09T00:57:12.670Z,15.52
2023-05-09T00:57:24.683Z,14.55
2023-05-09T00:57:37.154Z,14.30
2023-05-09T00:57:49.155Z,14.68
2023-05-09T00:58:02.664Z,14.43
2023-05-09T00:58:15.025Z,14.25
2023-05-09T00:58:27.232Z,14.43
2023-05-09T00:58:39.140Z,14.68
2023-05-09T00:58:51.669Z,15.43
2023-05-09T00:59:03.812Z,15.27
2023-05-09T00:59:17.975Z,15.55
2023-05-09T00:59:30.193Z,15.55
2023-05-09T00:59:42.247Z,15.10
2023-05-09T00:59:54.222Z,13.35
2023-05-09T01:00:07.022Z,13.30
2023-05-09T01:00:20.108Z,14.90
2023-05-09T01:00:32.221Z,14.85
2023-05-09T01:00:44.119Z,14.30
2023-05-09T01:00:56.393Z,14.85
2023-05-09T01:01:08.706Z,14.60
2023-05-09T01:01:21.257Z,14.68
2023-05-09T01:01:33.487Z,14.93
2023-05-09T01:01:46.170Z,16.38
2023-05-09T01:01:58.290Z,16.33
2023-05-09T01:02:12.574Z,15.75
2023-05-09T01:02:24.647Z,13.40
2023-05-09T01:02:37.363Z,12.68
2023-05-09T01:02:54.094Z,11.77
2023-05-09T01:03:06.721Z,13.85
2023-05-09T01:03:18.909Z,15.13
2023-05-09T01:03:32.110Z,14.50
2023-05-09T01:03:45.538Z,14.02
2023-05-09T01:03:58.299Z,14.65
2023-05-09T01:04:11.137Z,14.82
2023-05-09T01:04:23.658Z,14.15
2023-05-09T01:04:35.974Z,14.18
2023-05-09T01:04:48.451Z,14.00
2023-05-09T01:05:00.423Z,14.73
2023-05-09T01:05:14.366Z,14.75
2023-05-09T01:05:34.939Z,15.95
2023-05-09T01:06:02.813Z,15.38
2023-05-09T01:06:22.836Z,14.82
2023-05-09T01:06:55.254Z,15.20
2023-05-09T01:07:30.264Z,16.23
2023-05-09T01:08:07.821Z,15.38
2023-05-09T01:08:33.696Z,16.27
2023-05-09T01:08:59.587Z,16.77
2023-05-09T01:09:32.388Z,15.88
2023-05-09T01:09:47.563Z,15.35
2023-05-09T01:10:15.951Z,16.95
2023-05-09T01:10:43.658Z,14.60
2023-05-09T01:11:17.131Z,17.75
2023-05-09T01:11:36.308Z,15.80
2023-05-09T01:12:12.379Z,16.58
2023-05-09T01:12:49.592Z,14.82
2023-05-09T01:13:20.806Z,16.35
2023-05-09T01:13:52.416Z,17.45
2023-05-09T01:14:28.245Z,20.48
2023-05-09T01:15:14.288Z,14.13
2023-05-09T01:15:51.599Z,14.13
2023-05-09T01:16:15.448Z,17.50
2023-05-09T01:16:58.907Z,17.38
2023-05-09T01:17:18.029Z,17.08
2023-05-09T01:17:50.206Z,17.70
2023-05-09T01:18:16.197Z,17.67
2023-05-09T01:18:37.975Z,18.17
2023-05-09T01:19:12.300Z,17.45
2023-05-09T01:19:46.006Z,14.93
2023-05-09T01:20:24.194Z,17.80
2023-05-09T01:20:45.464Z,13.80
2023-05-09T01:21:08.898Z,15.95
2023-05-09T01:21:26.962Z,16.33
2023-05-09T01:21:43.869Z,16.30
2023-05-09T01:21:57.053Z,15.10
2023-05-09T01:22:12.064Z,15.45
2023-05-09T01:22:30.304Z,15.98
2023-05-09T01:22:55.276Z,15.13
2023-05-09T01:23:33.207Z,14.52
2023-05-09T01:23:45.199Z,14.05
2023-05-09T01:24:10.007Z,16.92
2023-05-09T01:24:49.401Z,16.30
2023-05-09T01:25:20.696Z,14.90
2023-05-09T01:25:38.356Z,15.38
2023-05-09T01:26:06.333Z,15.40
2023-05-09T01:26:36.315Z,16.02
2023-05-09T01:27:22.647Z,15.15
2023-05-09T01:27:59.206Z,16.85
2023-05-09T01:28:16.832Z,15.27
2023-05-09T01:29:17.326Z,16.50
2023-05-09T01:29:59.598Z,15.82
2023-05-09T01:30:13.746Z,16.85
2023-05-09T01:30:26.676Z,16.25
2023-05-09T01:30:42.541Z,16.35
2023-05-09T01:30:56.646Z,15.93
2023-05-09T01:31:09.753Z,16.73
2023-05-09T01:31:22.759Z,15.57
2023-05-09T01:31:39.390Z,14.88
2023-05-09T01:31:52.914Z,16.03
2023-05-09T01:32:09.593Z,15.55
2023-05-09T01:32:24.892Z,15.38
2023-05-09T01:32:39.249Z,16.13
2023-05-09T01:32:53.959Z,15.65
2023-05-09T01:33:08.131Z,15.07
2023-05-09T01:33:21.946Z,14.52
2023-05-09T01:33:38.348Z,13.55
2023-05-09T01:33:57.966Z,14.63
2023-05-09T01:34:11.403Z,15.00
2023-05-09T01:34:27.310Z,15.35
2023-05-09T01:34:41.038Z,14.70
2023-05-09T01:34:56.225Z,13.73
2023-05-09T01:35:12.581Z,13.43
2023-05-09T01:35:26.682Z,15.30
2023-05-09T01:35:44.335Z,17.05
2023-05-09T01:36:01.862Z,16.15
2023-05-09T01:36:17.973Z,15.35
2023-05-09T01:36:32.749Z,15.43
2023-05-09T01:36:48.742Z,15.15
2023-05-09T01:37:02.294Z,13.93
2023-05-09T01:37:16.524Z,15.20
2023-05-09T01:37:31.368Z,16.50
2023-05-09T01:37:49.001Z,15.65
2023-05-09T01:38:05.437Z,13.82
2023-05-09T01:38:23.744Z,13.45
2023-05-09T01:38:38.401Z,14.20
2023-05-09T01:38:52.293Z,13.80
2023-05-09T01:39:05.878Z,12.75
2023-05-09T01:39:19.135Z,12.57
2023-05-09T01:39:33.869Z,13.13
2023-05-09T01:39:50.679Z,13.02
2023-05-09T01:40:14.214Z,12.73
2023-05-09T01:40:30.390Z,13.68
2023-05-09T01:40:45.387Z,14.57
2023-05-09T01:40:59.873Z,13.02
2023-05-09T01:41:15.516Z,14.48
2023-05-09T01:41:32.060Z,16.40
2023-05-09T01:41:44.354Z,15.80
2023-05-09T01:41:58.038Z,17.77
2023-05-09T01:42:12.566Z,17.58
2023-05-09T01:42:27.880Z,15.95
2023-05-09T01:42:44.278Z,15.60
2023-05-09T01:43:09.951Z,14.68
2023-05-09T01:43:25.764Z,15.75
2023-05-09T01:43:38.867Z,15.30
2023-05-09T01:43:53.497Z,14.18
2023-05-09T01:44:13.409Z,13.77
2023-05-09T01:44:25.926Z,14.25
2023-05-09T01:44:40.937Z,13.93
2023-05-09T01:44:54.716Z,13.98
2023-05-09T01:45:08.291Z,15.65
2023-05-09T01:45:21.039Z,17.45
2023-05-09T01:45:34.173Z,17.17
2023-05-09T01:45:48.433Z,18.10
2023-05-09T01:46:02.298Z,17.35
2023-05-09T01:46:17.064Z,17.05
2023-05-09T01:46:30.586Z,16.30
2023-05-09T01:46:43.611Z,15.48
2023-05-09T01:46:55.851Z,15.75
2023-05-09T01:47:09.452Z,16.58
2023-05-09T01:47:22.929Z,16.10
2023-05-09T01:47:35.988Z,16.15
2023-05-09T01:47:49.104Z,15.90
2023-05-09T01:48:02.419Z,16.92
2023-05-09T01:48:15.593Z,17.63
2023-05-09T01:48:30.838Z,15.75
2023-05-09T01:48:45.313Z,15.23
2023-05-09T01:49:00.298Z,16.30
2023-05-09T01:49:13.779Z,17.55
2023-05-09T01:49:29.537Z,17.10
2023-05-09T01:49:42.809Z,15.48
2023-05-09T01:49:55.725Z,14.65
2023-05-09T01:50:11.229Z,14.82
2023-05-09T01:50:24.252Z,14.73
2023-05-09T01:50:37.692Z,14.77
2023-05-09T01:50:49.814Z,14.82
2023-05-09T01:51:02.751Z,15.32
2023-05-09T01:51:16.297Z,17.73
2023-05-09T01:51:29.593Z,19.35
2023-05-09T01:51:43.780Z,17.85
2023-05-09T01:51:57.443Z,18.98
2023-05-09T01:52:13.460Z,17.70
2023-05-09T01:52:26.356Z,14.98
2023-05-09T01:52:41.075Z,15.63
2023-05-09T01:52:56.110Z,17.05
2023-05-09T01:53:10.401Z,16.75
2023-05-09T01:53:24.159Z,17.00
2023-05-09T01:53:36.681Z,18.45
2023-05-09T01:53:51.226Z,19.00
2023-05-09T01:54:05.664Z,19.33
2023-05-09T01:54:18.715Z,18.38
2023-05-09T01:54:32.058Z,18.45
2023-05-09T01:54:45.864Z,19.10
2023-05-09T01:55:01.326Z,18.05
2023-05-09T01:55:14.613Z,16.73
2023-05-09T01:55:31.664Z,15.70
2023-05-09T01:55:44.067Z,15.65
2023-05-09T01:55:58.173Z,15.65
2023-05-09T01:56:12.646Z,15.38
2023-05-09T01:56:26.457Z,15.38
2023-05-09T01:56:42.084Z,15.77
2023-05-09T01:56:55.485Z,16.50
2023-05-09T01:57:08.890Z,16.20
2023-05-09T01:57:22.462Z,16.73
2023-05-09T01:57:36.351Z,16.77
2023-05-09T01:57:50.176Z,15.25
2023-05-09T01:58:05.428Z,15.05
2023-05-09T01:58:18.641Z,14.70
2023-05-09T01:58:33.632Z,13.82
2023-05-09T01:58:48.343Z,14.55
2023-05-09T01:59:02.194Z,14.95
2023-05-09T01:59:16.307Z,15.75
2023-05-09T01:59:29.954Z,18.73
2023-05-09T01:59:45.430Z,19.42
2023-05-09T01:59:59.009Z,17.40
2023-05-09T02:00:13.925Z,16.27
2023-05-09T02:00:27.319Z,16.08
2023-05-09T02:00:40.438Z,17.60
2023-05-09T02:00:53.057Z,17.33
2023-05-09T02:01:05.969Z,15.50
2023-05-09T02:01:19.751Z,15.57
2023-05-09T02:01:32.249Z,15.82
2023-05-09T02:01:46.861Z,15.95
2023-05-09T02:01:59.459Z,17.05
2023-05-09T02:02:12.411Z,16.95
2023-05-09T02:02:27.318Z,15.65
2023-05-09T02:02:39.965Z,16.08
2023-05-09T02:02:53.308Z,15.82
2023-05-09T02:03:06.193Z,14.40
2023-05-09T02:03:18.710Z,16.33
2023-05-09T02:03:33.947Z,16.67
2023-05-09T02:03:50.678Z,14.73
2023-05-09T02:04:04.560Z,15.32
2023-05-09T02:04:18.616Z,17.05
2023-05-09T02:04:31.006Z,18.58
2023-05-09T02:04:44.153Z,18.13
2023-05-09T02:04:57.194Z,16.80
2023-05-09T02:05:10.765Z,17.23
2023-05-09T02:05:27.297Z,16.38
2023-05-09T02:05:40.208Z,16.25
2023-05-09T02:05:52.803Z,16.55
2023-05-09T02:06:05.102Z,17.15
2023-05-09T02:06:18.539Z,16.27
2023-05-09T02:06:32.547Z,17.20
2023-05-09T02:06:49.535Z,18.13
2023-05-09T02:07:02.417Z,18.00
2023-05-09T02:07:15.040Z,17.65
2023-05-09T02:07:29.935Z,16.10
2023-05-09T02:07:42.789Z,14.55
2023-05-09T02:07:59.442Z,15.50
2023-05-09T02:08:14.125Z,16.70
2023-05-09T02:08:26.695Z,16.23
2023-05-09T02:08:38.844Z,15.88
2023-05-09T02:08:51.089Z,16.63
2023-05-09T02:09:03.482Z,16.75
2023-05-09T02:09:15.767Z,16.55
2023-05-09T02:09:27.831Z,16.27
2023-05-09T02:09:39.784Z,17.15
2023-05-09T02:09:54.007Z,17.38
2023-05-09T02:10:09.028Z,17.03
2023-05-09T02:10:22.621Z,16.63
2023-05-09T02:10:35.698Z,16.50
2023-05-09T02:10:49.265Z,17.13
2023-05-09T02:11:01.265Z,16.88
2023-05-09T02:11:13.198Z,17.85
2023-05-09T02:11:25.779Z,19.52
2023-05-09T02:11:37.717Z,19.73
2023-05-09T02:11:49.700Z,17.45
2023-05-09T02:12:01.986Z,17.83
2023-05-09T02:12:13.920Z,18.02
2023-05-09T02:12:26.736Z,17.90
2023-05-09T02:12:39.848Z,17.00
2023-05-09T02:12:52.555Z,15.82
2023-05-09T02:13:04.516Z,16.15
2023-05-09T02:13:17.072Z,16.33
2023-05-09T02:13:29.929Z,15.73
2023-05-09T02:13:41.979Z,16.80
2023-05-09T02:13:53.964Z,17.35
2023-05-09T02:14:06.294Z,19.35
2023-05-09T02:14:18.230Z,18.98
2023-05-09T02:14:31.123Z,18.00
2023-05-09T02:14:43.546Z,18.05
2023-05-09T02:14:55.570Z,17.58
2023-05-09T02:15:08.822Z,16.95
2023-05-09T02:15:21.752Z,18.17
2023-05-09T02:15:34.299Z,18.25
2023-05-09T02:15:47.089Z,16.88
2023-05-09T02:15:59.581Z,18.35
2023-05-09T02:16:12.101Z,18.48
2023-05-09T02:16:24.175Z,18.23
2023-05-09T02:16:36.307Z,17.08
2023-05-09T02:16:48.458Z,16.95
2023-05-09T02:17:06.302Z,17.73
2023-05-09T02:17:19.144Z,18.88
2023-05-09T02:17:31.326Z,18.42
2023-05-09T02:17:43.317Z,16.98
2023-05-09T02:17:55.327Z,16.70
2023-05-09T02:18:07.373Z,16.23
2023-05-09T02:18:19.282Z,17.40
2023-05-09T02:18:32.530Z,17.95
2023-05-09T02:18:44.444Z,16.95
2023-05-09T02:18:56.396Z,17.33
2023-05-09T02:19:08.324Z,17.98
2023-05-09T02:19:20.220Z,17.42
2023-05-09T02:19:35.828Z,17.30
2023-05-09T02:19:47.805Z,16.63
2023-05-09T02:19:59.866Z,16.33
2023-05-09T02:20:13.466Z,18.05
2023-05-09T02:20:25.389Z,17.88
2023-05-09T02:20:37.358Z,17.50
2023-05-09T02:20:49.354Z,18.33
2023-05-09T02:21:02.751Z,20.08
2023-05-09T02:21:14.690Z,19.63
2023-05-09T02:21:29.074Z,17.92
2023-05-09T02:21:41.352Z,16.83
2023-05-09T02:21:53.277Z,18.50
2023-05-09T02:22:05.326Z,18.52
2023-05-09T02:22:17.618Z,18.50
2023-05-09T02:22:29.568Z,17.65
2023-05-09T02:22:42.960Z,17.77
2023-05-09T02:22:54.949Z,17.95
2023-05-09T02:23:06.973Z,17.38
2023-05-09T02:23:20.150Z,17.90
2023-05-09T02:23:32.080Z,18.15
2023-05-09T02:23:44.126Z,17.08
2023-05-09T02:23:56.485Z,15.80
2023-05-09T02:24:08.467Z,16.13
2023-05-09T02:24:20.482Z,16.33
2023-05-09T02:24:34.302Z,17.83
2023-05-09T02:24:46.278Z,18.85
2023-05-09T02:24:58.264Z,18.23
2023-05-09T02:25:14.277Z,16.67
2023-05-09T02:25:26.440Z,16.58
2023-05-09T02:25:39.369Z,15.88
2023-05-09T02:25:54.099Z,14.82
2023-05-09T02:26:06.552Z,14.10
2023-05-09T02:26:19.470Z,15.45
2023-05-09T02:26:31.671Z,15.30
2023-05-09T02:26:44.053Z,14.80
2023-05-09T02:26:57.755Z,14.95
2023-05-09T02:27:11.660Z,17.00
2023-05-09T02:27:23.832Z,18.33
2023-05-09T02:27:38.665Z,17.75
2023-05-09T02:27:51.952Z,17.02
2023-05-09T02:28:04.106Z,18.77
2023-05-09T02:28:19.385Z,19.92
2023-05-09T02:28:31.669Z,20.20
2023-05-09T02:28:45.468Z,18.85
2023-05-09T02:28:58.758Z,18.85
2023-05-09T02:29:11.629Z,17.90
2023-05-09T02:29:40.426Z,17.50
2023-05-09T02:29:56.379Z,16.55
2023-05-09T02:30:11.348Z,15.65
2023-05-09T02:30:27.772Z,15.88
2023-05-09T02:30:44.175Z,15.85
2023-05-09T02:30:58.713Z,15.75
2023-05-09T02:31:13.054Z,15.68
2023-05-09T02:31:28.322Z,15.80
2023-05-09T02:31:42.266Z,16.52
2023-05-09T02:31:54.561Z,17.23
2023-05-09T02:32:09.731Z,18.52
2023-05-09T02:32:28.813Z,17.48
2023-05-09T02:32:44.100Z,17.25
2023-05-09T02:33:02.367Z,17.23
2023-05-09T02:33:14.499Z,14.27
2023-05-09T02:33:27.384Z,15.90
2023-05-09T02:33:41.346Z,17.23
2023-05-09T02:33:54.525Z,15.48
2023-05-09T02:34:07.246Z,16.65
2023-05-09T02:34:20.179Z,16.52
2023-05-09T02:34:33.136Z,15.68
2023-05-09T02:34:46.046Z,16.38
2023-05-09T02:35:00.801Z,17.05
2023-05-09T02:35:14.995Z,15.25
2023-05-09T02:35:28.820Z,14.52
2023-05-09T02:35:44.391Z,14.80
2023-05-09T02:35:57.196Z,15.70
2023-05-09T02:36:10.249Z,15.60
2023-05-09T02:36:23.314Z,14.90
2023-05-09T02:36:35.748Z,15.52
2023-05-09T02:36:47.789Z,14.80
2023-05-09T02:37:00.225Z,14.82
2023-05-09T02:37:13.638Z,14.00
2023-05-09T02:37:26.148Z,14.50
2023-05-09T02:37:40.117Z,15.30
2023-05-09T02:37:52.922Z,15.30
2023-05-09T02:38:06.343Z,14.48
2023-05-09T02:38:19.246Z,16.33
2023-05-09T02:38:31.534Z,17.27
2023-05-09T02:38:45.137Z,16.30
2023-05-09T02:38:57.092Z,16.10
2023-05-09T02:39:09.642Z,16.23
2023-05-09T02:39:21.814Z,16.15
2023-05-09T02:39:34.526Z,16.80
2023-05-09T02:39:47.285Z,19.27
2023-05-09T02:40:00.000Z,18.92
2023-05-09T02:40:13.358Z,20.40
2023-05-09T02:40:28.058Z,19.48
2023-05-09T02:40:42.846Z,16.70
2023-05-09T02:40:55.008Z,15.80
2023-05-09T02:41:07.345Z,15.30
2023-05-09T02:41:19.383Z,15.95
2023-05-09T02:41:31.672Z,17.20
2023-05-09T02:41:49.323Z,18.35
2023-05-09T02:42:10.706Z,18.25
2023-05-09T02:42:27.685Z,16.52
2023-05-09T02:42:39.648Z,17.73
2023-05-09T02:42:51.696Z,17.70
2023-05-09T02:43:04.137Z,17.30
2023-05-09T02:43:16.309Z,17.73
2023-05-09T02:43:28.218Z,17.80
2023-05-09T02:43:40.261Z,16.90
2023-05-09T02:43:52.439Z,18.65
2023-05-09T02:44:05.103Z,19.05
2023-05-09T02:44:17.015Z,18.55
2023-05-09T02:44:28.949Z,18.45
2023-05-09T02:44:40.939Z,18.58
2023-05-09T02:44:53.742Z,19.33
2023-05-09T02:45:07.120Z,18.45
2023-05-09T02:45:19.160Z,17.25
2023-05-09T02:45:32.209Z,16.52
2023-05-09T02:45:44.630Z,17.17
2023-05-09T02:45:56.645Z,16.77
2023-05-09T02:46:10.187Z,15.57
2023-05-09T02:46:22.384Z,17.35
2023-05-09T02:46:34.445Z,18.73
2023-05-09T02:46:46.710Z,18.70
2023-05-09T02:46:58.744Z,17.38
2023-05-09T02:47:11.066Z,18.48
2023-05-09T02:47:23.469Z,18.60
2023-05-09T02:47:35.469Z,17.05
2023-05-09T02:47:47.620Z,15.95
2023-05-09T02:48:00.022Z,16.33
2023-05-09T02:48:12.096Z,17.85
2023-05-09T02:48:24.603Z,17.38
2023-05-09T02:48:36.847Z,18.92
2023-05-09T02:48:49.202Z,19.25
2023-05-09T02:49:01.306Z,19.92
2023-05-09T02:49:26.748Z,19.70
2023-05-09T02:49:43.498Z,19.30
2023-05-09T02:49:55.387Z,22.00
2023-05-09T02:50:08.036Z,23.02
2023-05-09T02:50:20.068Z,20.00
2023-05-09T02:50:32.667Z,18.33
2023-05-09T02:50:45.826Z,18.42
2023-05-09T02:50:58.311Z,19.08
2023-05-09T02:51:10.275Z,21.02
2023-05-09T02:51:22.951Z,20.90
2023-05-09T02:51:34.871Z,20.70
2023-05-09T02:51:47.005Z,19.90
2023-05-09T02:51:59.053Z,19.20
2023-05-09T02:52:11.942Z,19.83
2023-05-09T02:52:23.827Z,21.35
2023-05-09T02:52:35.900Z,19.67
2023-05-09T02:52:47.893Z,19.13
2023-05-09T02:53:00.334Z,18.15
2023-05-09T02:53:12.260Z,17.63
2023-05-09T02:53:24.677Z,17.60
2023-05-09T02:53:36.575Z,19.17
2023-05-09T02:53:48.846Z,19.85
2023-05-09T02:54:00.834Z,20.45
2023-05-09T02:54:12.884Z,19.10
2023-05-09T02:54:24.878Z,19.65
2023-05-09T02:54:38.161Z,19.33
2023-05-09T02:54:50.075Z,19.75
2023-05-09T02:55:03.468Z,18.10
2023-05-09T02:55:16.014Z,17.52
2023-05-09T02:55:28.476Z,18.45
2023-05-09T02:55:40.489Z,21.23
2023-05-09T02:55:53.851Z,20.77
2023-05-09T02:56:05.930Z,18.63
2023-05-09T02:56:17.868Z,18.02
2023-05-09T02:56:29.760Z,17.95
2023-05-09T02:56:41.863Z,16.88
2023-05-09T02:56:54.017Z,17.38
2023-05-09T02:57:06.634Z,18.00
2023-05-09T02:57:18.562Z,19.08
2023-05-09T02:57:30.962Z,18.75
2023-05-09T02:57:43.707Z,18.70
2023-05-09T02:58:09.285Z,19.23
2023-05-09T02:58:25.269Z,20.30
2023-05-09T02:58:37.280Z,19.20
2023-05-09T02:58:51.450Z,18.17
2023-05-09T02:59:03.625Z,18.55
2023-05-09T02:59:16.037Z,19.33
2023-05-09T02:59:28.500Z,18.90
2023-05-09T02:59:40.457Z,18.42
2023-05-09T02:59:54.834Z,18.23
2023-05-09T03:00:10.659Z,20.70
2023-05-09T03:00:23.826Z,21.33
2023-05-09T03:00:36.034Z,19.67
2023-05-09T03:00:47.956Z,20.52
2023-05-09T03:01:00.086Z,20.15
2023-05-09T03:01:12.086Z,19.25
2023-05-09T03:01:25.358Z,18.73
2023-05-09T03:01:37.721Z,19.02
2023-05-09T03:01:49.951Z,18.40
2023-05-09T03:02:02.085Z,19.00
2023-05-09T03:02:14.141Z,18.60
2023-05-09T03:02:26.185Z,19.85
2023-05-09T03:02:38.648Z,18.55
2023-05-09T03:02:50.766Z,18.40
2023-05-09T03:03:03.476Z,18.73